Time;durP1;ratioP1;P1;durP2;ratioP2;P2;SDS_P1;SDS_P2;PMS_P1;PMS_P2;Temp;Humidity;BMP_temperature;BMP_pressure;BME280_temperature;BME280_humidity;BME280_pressure;Samples;Min_cycle;Max_cycle;Signal;HPM_P1;HPM_P2
2023/08/11 00:02:22;;;;;;;13.57;7.97;;;17.30;99.90;;;;;;5045679;28;20056;-70
2023/08/11 00:04:49;;;;;;;13.73;8.60;;;17.30;99.90;;;;;;5038596;28;20041;-66
2023/08/11 00:07:15;;;;;;;10.32;7.43;;;17.30;99.90;;;;;;5054700;28;20036;-67
2023/08/11 00:09:41;;;;;;;10.25;7.78;;;17.20;99.90;;;;;;5033376;28;20029;-66
2023/08/11 00:12:06;;;;;;;12.63;8.63;;;17.10;99.90;;;;;;5043444;28;20029;-67
2023/08/11 00:14:32;;;;;;;13.63;8.50;;;17.00;99.90;;;;;;5033975;28;20261;-66
2023/08/11 00:16:58;;;;;;;12.38;7.72;;;16.90;99.90;;;;;;5024601;28;20049;-67
2023/08/11 00:19:24;;;;;;;9.93;7.95;;;16.80;99.90;;;;;;5027246;28;20440;-67
2023/08/11 00:21:49;;;;;;;10.68;7.82;;;16.80;99.90;;;;;;5032246;28;20129;-67
2023/08/11 00:24:15;;;;;;;13.68;8.23;;;16.70;99.90;;;;;;5024954;28;20154;-67
2023/08/11 00:26:41;;;;;;;11.25;8.88;;;16.60;99.90;;;;;;5026452;28;20044;-66
2023/08/11 00:29:07;;;;;;;11.07;8.55;;;16.60;99.90;;;;;;5046950;28;20037;-70
2023/08/11 00:31:32;;;;;;;14.25;9.40;;;16.50;99.90;;;;;;5028935;28;20108;-69
2023/08/11 00:33:58;;;;;;;12.57;8.13;;;16.40;99.90;;;;;;5008837;28;20046;-69
2023/08/11 00:36:24;;;;;;;12.90;9.20;;;16.40;99.90;;;;;;5031178;28;20037;-69
2023/08/11 00:38:49;;;;;;;13.48;8.38;;;16.30;99.90;;;;;;5024487;28;20038;-69
2023/08/11 00:41:16;;;;;;;12.93;9.68;;;16.30;99.90;;;;;;5023924;28;20068;-69
2023/08/11 00:43:42;;;;;;;11.98;9.07;;;16.20;99.90;;;;;;5027702;28;20473;-69
2023/08/11 00:46:10;;;;;;;13.15;9.32;;;16.10;99.90;;;;;;5027844;28;20033;-69
2023/08/11 00:48:38;;;;;;;14.75;10.07;;;16.10;99.90;;;;;;5026150;28;20415;-69
2023/08/11 00:51:05;;;;;;;14.60;9.73;;;16.10;99.90;;;;;;5040142;28;20052;-69
2023/08/11 00:53:32;;;;;;;15.50;9.95;;;16.00;99.90;;;;;;5042939;28;20048;-69
2023/08/11 00:55:58;;;;;;;13.55;10.40;;;16.00;99.90;;;;;;5041569;28;20044;-69
2023/08/11 00:58:24;;;;;;;16.48;10.77;;;15.90;99.90;;;;;;5032858;28;20037;-69
2023/08/11 01:00:51;;;;;;;15.73;10.80;;;15.90;99.90;;;;;;5035835;28;20056;-69
2023/08/11 01:03:18;;;;;;;14.77;10.57;;;15.80;99.90;;;;;;5033832;28;20524;-68
2023/08/11 01:05:50;;;;;;;14.55;10.98;;;15.80;99.90;;;;;;5038081;28;20045;-68
2023/08/11 01:08:43;;;;;;;17.42;11.27;;;15.70;99.90;;;;;;5029692;28;20087;-69
2023/08/11 01:11:40;;;;;;;17.20;11.98;;;15.80;99.90;;;;;;5036735;28;20040;-69
2023/08/11 01:14:24;;;;;;;17.63;13.23;;;15.80;99.90;;;;;;5037947;28;20056;-69
2023/08/11 01:16:51;;;;;;;18.55;11.75;;;15.70;99.90;;;;;;5044079;28;20538;-69
2023/08/11 01:19:37;;;;;;;16.80;12.30;;;15.70;99.90;;;;;;5050831;28;20361;-69
2023/08/11 01:22:08;;;;;;;18.88;12.98;;;15.70;99.90;;;;;;5045226;28;20132;-66
2023/08/11 01:24:34;;;;;;;17.35;12.35;;;15.60;99.90;;;;;;5024614;28;20056;-67
2023/08/11 01:27:00;;;;;;;17.52;11.95;;;15.60;99.90;;;;;;5034356;28;20125;-66
2023/08/11 01:29:26;;;;;;;19.98;12.68;;;15.60;99.90;;;;;;5030828;28;20055;-66
2023/08/11 01:31:52;;;;;;;17.98;12.68;;;15.50;99.90;;;;;;5064660;28;20426;-67
2023/08/11 01:34:17;;;;;;;17.33;11.95;;;15.50;99.90;;;;;;5047841;28;20338;-66
2023/08/11 01:36:43;;;;;;;19.02;12.05;;;15.50;99.90;;;;;;5042605;28;20094;-67
2023/08/11 01:39:13;;;;;;;17.35;12.93;;;15.50;99.90;;;;;;5030808;28;20045;-66
2023/08/11 01:41:39;;;;;;;20.45;12.65;;;15.50;99.90;;;;;;5046722;28;20045;-68
2023/08/11 01:44:05;;;;;;;16.45;12.25;;;15.40;99.90;;;;;;5057455;28;20167;-67
2023/08/11 01:46:32;;;;;;;15.63;11.82;;;15.40;99.90;;;;;;5036402;28;20374;-68
2023/08/11 01:48:59;;;;;;;17.95;12.57;;;15.40;99.90;;;;;;5028849;28;20042;-67
2023/08/11 01:51:26;;;;;;;17.45;12.10;;;15.40;99.90;;;;;;5039255;28;20381;-66
2023/08/11 01:53:51;;;;;;;14.35;11.65;;;15.40;99.90;;;;;;5042567;28;20045;-66
2023/08/11 01:56:18;;;;;;;17.65;11.23;;;15.40;99.90;;;;;;5052325;28;20063;-66
2023/08/11 01:58:44;;;;;;;16.58;11.90;;;15.40;99.90;;;;;;5038475;28;20392;-67
2023/08/11 02:01:10;;;;;;;17.40;11.98;;;15.40;99.90;;;;;;5017431;28;20038;-67
2023/08/11 02:03:35;;;;;;;16.33;11.27;;;15.40;99.90;;;;;;5026120;28;20088;-66
2023/08/11 02:06:01;;;;;;;15.95;11.55;;;15.40;99.90;;;;;;5040106;28;20114;-69
2023/08/11 02:08:27;;;;;;;18.13;12.85;;;15.40;99.90;;;;;;5031091;28;20400;-67
2023/08/11 02:10:55;;;;;;;17.33;10.70;;;15.50;99.90;;;;;;5038338;28;20037;-67
2023/08/11 02:13:21;;;;;;;15.15;10.80;;;15.50;99.90;;;;;;5046166;28;20045;-67
2023/08/11 02:15:46;;;;;;;16.85;10.57;;;15.50;99.90;;;;;;5027502;28;20045;-67
2023/08/11 02:18:12;;;;;;;15.32;11.00;;;15.40;99.90;;;;;;5044181;28;20085;-66
2023/08/11 02:20:38;;;;;;;22.38;11.40;;;15.50;99.90;;;;;;5036451;28;20032;-67
2023/08/11 02:23:03;;;;;;;15.40;11.02;;;15.50;99.90;;;;;;5038447;28;20037;-67
2023/08/11 02:25:29;;;;;;;15.27;10.82;;;15.50;99.90;;;;;;5007293;28;20127;-67
2023/08/11 02:27:54;;;;;;;17.08;11.43;;;15.50;99.90;;;;;;5025745;28;20041;-67
2023/08/11 02:30:22;;;;;;;15.02;10.55;;;15.50;99.90;;;;;;5044802;28;20109;-65
2023/08/11 02:32:47;;;;;;;18.00;10.60;;;15.50;99.90;;;;;;5033586;28;20456;-66
2023/08/11 02:35:14;;;;;;;16.73;10.57;;;15.50;99.90;;;;;;5028684;28;20048;-67
2023/08/11 02:37:40;;;;;;;14.00;10.45;;;15.50;99.90;;;;;;5028358;28;20374;-67
2023/08/11 02:40:10;;;;;;;14.23;9.68;;;15.50;99.90;;;;;;5037557;28;20048;-67
2023/08/11 02:42:38;;;;;;;16.10;10.15;;;15.50;99.90;;;;;;5037907;28;20053;-66
2023/08/11 02:45:04;;;;;;;12.55;10.18;;;15.40;99.90;;;;;;5040626;28;20146;-66
2023/08/11 02:47:31;;;;;;;15.32;9.60;;;15.40;99.90;;;;;;5038097;28;20109;-67
2023/08/11 02:49:56;;;;;;;16.75;10.10;;;15.40;99.90;;;;;;5039154;28;20047;-67
2023/08/11 02:52:22;;;;;;;13.15;9.50;;;15.30;99.90;;;;;;5031716;28;20587;-67
2023/08/11 02:54:47;;;;;;;14.90;10.32;;;15.30;99.90;;;;;;5032371;28;20481;-66
2023/08/11 02:57:13;;;;;;;15.13;10.40;;;15.20;99.90;;;;;;5027550;28;20470;-66
2023/08/11 02:59:39;;;;;;;14.90;10.60;;;15.20;99.90;;;;;;5033722;28;20342;-65
2023/08/11 03:02:04;;;;;;;15.07;11.20;;;15.10;99.90;;;;;;5032623;28;20671;-67
2023/08/11 03:04:30;;;;;;;15.10;9.30;;;15.10;99.90;;;;;;5032245;28;20042;-66
2023/08/11 03:06:56;;;;;;;17.73;11.20;;;15.10;99.90;;;;;;5038471;28;20077;-66
2023/08/11 03:09:22;;;;;;;17.00;10.95;;;15.00;99.90;;;;;;5039178;28;20107;-66
2023/08/11 03:11:47;;;;;;;14.27;10.63;;;15.00;99.90;;;;;;5045446;28;20052;-69
2023/08/11 03:14:13;;;;;;;14.93;9.85;;;15.00;99.90;;;;;;5048046;28;20047;-68
2023/08/11 03:16:38;;;;;;;15.60;10.75;;;14.90;99.90;;;;;;5041509;28;20041;-68
2023/08/11 03:19:04;;;;;;;14.43;10.13;;;14.90;99.90;;;;;;5043741;28;20029;-70
2023/08/11 03:21:30;;;;;;;15.77;10.30;;;14.90;99.90;;;;;;5040278;28;20029;-69
2023/08/11 03:23:56;;;;;;;14.13;10.38;;;14.90;99.90;;;;;;5045804;28;20098;-68
2023/08/11 03:26:21;;;;;;;13.38;9.85;;;14.80;99.90;;;;;;5047122;28;20401;-69
2023/08/11 03:28:47;;;;;;;16.77;10.35;;;14.80;99.90;;;;;;5045215;28;20505;-70
2023/08/11 03:31:12;;;;;;;12.38;9.95;;;14.70;99.90;;;;;;5048155;28;20151;-68
2023/08/11 03:33:38;;;;;;;14.65;8.45;;;14.70;99.90;;;;;;5051547;28;20473;-68
2023/08/11 03:36:04;;;;;;;11.27;8.90;;;14.60;99.90;;;;;;5039351;28;20101;-68
2023/08/11 03:38:30;;;;;;;13.48;9.48;;;14.60;99.90;;;;;;5028956;28;20045;-68
2023/08/11 03:40:55;;;;;;;15.00;9.70;;;14.60;99.90;;;;;;5038773;28;20117;-68
2023/08/11 03:43:21;;;;;;;13.50;8.90;;;14.50;99.90;;;;;;5042196;28;20087;-70
2023/08/11 03:45:47;;;;;;;15.73;9.85;;;14.60;99.90;;;;;;5042063;28;20438;-69
2023/08/11 03:48:12;;;;;;;11.88;8.38;;;14.50;99.90;;;;;;5062707;28;20112;-68
2023/08/11 03:50:38;;;;;;;15.02;9.38;;;14.60;99.90;;;;;;5036442;28;20512;-69
2023/08/11 03:53:03;;;;;;;13.05;9.02;;;14.60;99.90;;;;;;5043394;28;20421;-69
2023/08/11 03:55:29;;;;;;;12.43;8.93;;;14.60;99.90;;;;;;5034404;28;20084;-69
2023/08/11 03:57:54;;;;;;;12.27;9.13;;;14.60;99.90;;;;;;5029174;28;20033;-69
2023/08/11 04:00:20;;;;;;;12.00;8.85;;;14.60;99.90;;;;;;5035205;28;20032;-68
2023/08/11 04:02:46;;;;;;;13.52;8.45;;;14.60;99.90;;;;;;5047688;28;20087;-69
2023/08/11 04:05:12;;;;;;;14.05;9.00;;;14.60;99.90;;;;;;5039379;28;20523;-68
2023/08/11 04:07:38;;;;;;;11.38;8.57;;;14.60;99.90;;;;;;5056808;28;20032;-69
2023/08/11 04:10:05;;;;;;;15.07;8.02;;;14.60;99.90;;;;;;5025110;28;20194;-70
2023/08/11 04:12:31;;;;;;;12.88;8.10;;;14.60;99.90;;;;;;5044844;28;20084;-69
2023/08/11 04:14:57;;;;;;;15.38;8.80;;;14.60;99.90;;;;;;5045989;28;20060;-68
2023/08/11 04:17:26;;;;;;;14.40;9.05;;;14.60;99.90;;;;;;5030656;28;20152;-69
2023/08/11 04:19:53;;;;;;;14.82;9.25;;;14.60;99.90;;;;;;5030643;28;20071;-68
2023/08/11 04:22:20;;;;;;;11.32;8.25;;;14.60;99.90;;;;;;5039260;28;20033;-69
2023/08/11 04:24:45;;;;;;;10.57;8.30;;;14.60;99.90;;;;;;5027553;28;20077;-68
2023/08/11 04:27:11;;;;;;;13.80;8.20;;;14.60;99.90;;;;;;5032521;28;20523;-68
2023/08/11 04:29:36;;;;;;;15.40;7.85;;;14.50;99.90;;;;;;5035971;28;20132;-68
2023/08/11 04:32:04;;;;;;;9.23;7.68;;;14.60;99.90;;;;;;5039210;28;20405;-68
2023/08/11 04:34:31;;;;;;;13.40;8.02;;;14.60;99.90;;;;;;5031375;28;20091;-68
2023/08/11 04:36:57;;;;;;;13.60;8.38;;;14.60;99.90;;;;;;5029223;28;20536;-69
2023/08/11 04:39:23;;;;;;;14.93;8.48;;;14.60;99.90;;;;;;5046861;28;20045;-69
2023/08/11 04:41:48;;;;;;;9.55;8.00;;;14.60;99.90;;;;;;5027105;28;20034;-68
2023/08/11 04:44:14;;;;;;;11.77;8.88;;;14.60;99.90;;;;;;5022889;28;22420;-69
2023/08/11 04:46:40;;;;;;;12.52;8.25;;;14.60;99.90;;;;;;5031598;28;20204;-68
2023/08/11 04:49:06;;;;;;;10.35;7.45;;;14.60;99.90;;;;;;5027230;28;20436;-68
2023/08/11 04:51:32;;;;;;;10.93;7.38;;;14.70;99.90;;;;;;5033448;28;20100;-68
2023/08/11 04:54:01;;;;;;;13.23;8.98;;;14.70;99.90;;;;;;5026684;28;20129;-68
2023/08/11 04:56:30;;;;;;;10.03;7.63;;;14.70;99.90;;;;;;5023566;28;20526;-68
2023/08/11 04:58:55;;;;;;;15.13;7.88;;;14.70;99.90;;;;;;5026605;28;20383;-68
2023/08/11 05:01:22;;;;;;;9.85;7.75;;;14.70;99.90;;;;;;5026866;28;20063;-67
2023/08/11 05:03:49;;;;;;;12.25;8.05;;;14.70;99.90;;;;;;5027073;28;20450;-69
2023/08/11 05:06:16;;;;;;;13.77;8.23;;;14.70;99.90;;;;;;5034443;28;20113;-68
2023/08/11 05:08:43;;;;;;;11.23;8.13;;;14.70;99.90;;;;;;5034331;28;20128;-68
2023/08/11 05:11:09;;;;;;;12.77;8.05;;;14.80;99.90;;;;;;5047876;28;20568;-68
2023/08/11 05:13:35;;;;;;;17.23;8.85;;;14.80;99.90;;;;;;5044088;28;20049;-69
2023/08/11 05:16:01;;;;;;;12.63;7.90;;;14.90;99.90;;;;;;5042675;28;20044;-68
2023/08/11 05:18:26;;;;;;;13.85;7.90;;;14.90;99.90;;;;;;5040987;28;20476;-68
2023/08/11 05:20:52;;;;;;;10.15;7.65;;;15.00;99.90;;;;;;5045010;28;20095;-67
2023/08/11 05:23:18;;;;;;;10.63;8.35;;;15.10;99.90;;;;;;5045966;28;20345;-68
2023/08/11 05:25:44;;;;;;;11.57;7.75;;;15.10;99.90;;;;;;5023784;28;20029;-67
2023/08/11 05:28:10;;;;;;;10.18;7.30;;;15.20;99.90;;;;;;5040569;28;20519;-68
2023/08/11 05:30:36;;;;;;;9.95;7.38;;;15.30;99.90;;;;;;5041776;28;20037;-69
2023/08/11 05:33:01;;;;;;;14.73;7.30;;;15.40;99.90;;;;;;5041193;28;20064;-69
2023/08/11 05:35:29;;;;;;;10.63;6.68;;;15.50;99.90;;;;;;5048645;28;20051;-68
2023/08/11 05:37:55;;;;;;;14.32;7.53;;;15.60;99.90;;;;;;5048088;28;20044;-69
2023/08/11 05:40:20;;;;;;;13.05;6.82;;;15.70;99.90;;;;;;5023411;28;20087;-69
2023/08/11 05:42:46;;;;;;;11.38;6.38;;;15.90;99.90;;;;;;5030917;28;20554;-69
2023/08/11 05:45:11;;;;;;;7.55;5.82;;;16.00;99.90;;;;;;5039446;28;20151;-69
2023/08/11 05:47:37;;;;;;;10.25;5.70;;;16.10;99.90;;;;;;5026321;28;20056;-68
2023/08/11 05:50:03;;;;;;;10.98;6.32;;;16.20;99.90;;;;;;5061314;28;20348;-68
2023/08/11 05:52:29;;;;;;;8.07;5.85;;;16.30;99.90;;;;;;5047377;28;20431;-69
2023/08/11 05:54:54;;;;;;;12.57;6.75;;;16.40;99.90;;;;;;5049957;28;20057;-68
2023/08/11 05:57:20;;;;;;;12.25;5.90;;;16.60;99.90;;;;;;5036939;28;20136;-69
2023/08/11 05:59:46;;;;;;;8.23;5.65;;;16.70;99.90;;;;;;5047493;28;20041;-69
2023/08/11 06:02:12;;;;;;;7.88;5.78;;;16.90;99.90;;;;;;5028000;28;20666;-70
2023/08/11 06:04:37;;;;;;;7.95;4.90;;;17.00;99.90;;;;;;5040291;28;20037;-70
2023/08/11 06:07:03;;;;;;;7.15;5.53;;;17.10;99.90;;;;;;5066612;28;20072;-70
2023/08/11 06:09:29;;;;;;;11.30;5.75;;;17.30;99.90;;;;;;5047297;28;20115;-70
2023/08/11 06:11:55;;;;;;;8.48;5.75;;;17.30;99.90;;;;;;5037671;28;20032;-70
2023/08/11 06:14:20;;;;;;;6.22;5.20;;;17.50;99.90;;;;;;5031870;28;20060;-70
2023/08/11 06:16:46;;;;;;;7.65;5.28;;;17.60;99.90;;;;;;5042428;28;20082;-67
2023/08/11 06:19:12;;;;;;;9.02;6.10;;;17.80;99.90;;;;;;5040000;28;20041;-67
2023/08/11 06:21:38;;;;;;;8.00;5.43;;;17.90;99.90;;;;;;5031746;28;20049;-67
2023/08/11 06:24:04;;;;;;;6.57;5.18;;;18.10;99.90;;;;;;5028932;28;20038;-68
2023/08/11 06:26:29;;;;;;;6.43;4.85;;;18.30;99.90;;;;;;5028602;28;20339;-68
2023/08/11 06:28:55;;;;;;;6.35;4.40;;;18.50;99.90;;;;;;5042069;28;20114;-68
2023/08/11 06:31:21;;;;;;;8.35;4.50;;;18.70;99.90;;;;;;5049392;28;20057;-68
2023/08/11 06:33:47;;;;;;;5.43;4.43;;;18.90;99.90;;;;;;5033249;28;20040;-69
2023/08/11 06:36:13;;;;;;;7.60;4.05;;;19.10;99.90;;;;;;5043891;28;20087;-68
2023/08/11 06:38:39;;;;;;;9.40;3.90;;;19.30;99.90;;;;;;5034001;28;20049;-69
2023/08/11 06:41:05;;;;;;;7.18;3.58;;;19.50;99.90;;;;;;5040852;28;20060;-68
2023/08/11 06:43:31;;;;;;;5.97;3.67;;;19.70;99.90;;;;;;5035005;28;20564;-68
2023/08/11 06:45:56;;;;;;;4.68;3.00;;;19.80;99.40;;;;;;5034843;28;20041;-67
2023/08/11 06:48:22;;;;;;;7.40;3.67;;;19.90;98.40;;;;;;5047303;28;20087;-68
2023/08/11 06:50:48;;;;;;;4.82;3.58;;;20.10;98.00;;;;;;5050201;28;20073;-68
2023/08/11 06:53:13;;;;;;;4.55;2.90;;;20.30;96.60;;;;;;5048225;28;20400;-68
2023/08/11 06:55:39;;;;;;;5.53;3.42;;;20.50;96.20;;;;;;5033054;28;20083;-69
2023/08/11 06:58:04;;;;;;;5.55;3.20;;;20.70;95.40;;;;;;5044598;28;20057;-68
2023/08/11 07:00:30;;;;;;;3.95;2.95;;;20.80;94.50;;;;;;5048650;28;20033;-70
2023/08/11 07:02:56;;;;;;;5.10;3.03;;;21.00;94.10;;;;;;5051431;28;20095;-67
2023/08/11 07:05:21;;;;;;;3.65;2.60;;;21.10;93.40;;;;;;5050071;28;20059;-68
2023/08/11 07:07:47;;;;;;;4.88;2.50;;;21.40;93.10;;;;;;5041832;28;20399;-67
2023/08/11 07:10:13;;;;;;;6.05;3.28;;;21.60;92.40;;;;;;5027647;28;20183;-68
2023/08/11 07:12:38;;;;;;;4.57;2.85;;;21.80;91.90;;;;;;5041887;28;20098;-68
2023/08/11 07:15:04;;;;;;;5.28;2.88;;;21.90;91.00;;;;;;5047271;28;20064;-67
2023/08/11 07:17:30;;;;;;;4.65;2.55;;;22.10;90.10;;;;;;5047915;28;20511;-67
2023/08/11 07:19:55;;;;;;;3.75;2.58;;;22.30;89.40;;;;;;5050083;28;20465;-67
2023/08/11 07:22:21;;;;;;;3.30;2.42;;;22.40;88.30;;;;;;5037997;28;20048;-67
2023/08/11 07:24:46;;;;;;;4.53;2.65;;;22.40;86.00;;;;;;5041570;28;20055;-66
2023/08/11 07:27:12;;;;;;;4.90;2.70;;;22.60;84.10;;;;;;5047012;28;20472;-69
2023/08/11 07:29:37;;;;;;;4.03;2.65;;;22.50;83.10;;;;;;5049376;28;20037;-69
2023/08/11 07:32:04;;;;;;;3.25;2.83;;;22.80;81.90;;;;;;5045574;28;20044;-68
2023/08/11 07:34:29;;;;;;;3.20;2.90;;;22.90;79.50;;;;;;5044262;28;20056;-69
2023/08/11 07:36:55;;;;;;;4.50;2.70;;;23.10;78.60;;;;;;5038856;28;20385;-70
2023/08/11 07:39:22;;;;;;;4.40;2.50;;;23.10;76.80;;;;;;5031470;28;20431;-68
2023/08/11 07:41:48;;;;;;;4.10;2.58;;;23.20;76.60;;;;;;5048664;28;20468;-69
2023/08/11 07:44:15;;;;;;;3.10;2.42;;;23.10;76.00;;;;;;5055327;28;20068;-68
2023/08/11 07:46:41;;;;;;;4.50;2.95;;;23.10;74.30;;;;;;5038484;28;20045;-69
2023/08/11 07:49:06;;;;;;;3.42;2.42;;;23.30;73.30;;;;;;5046325;28;20408;-67
2023/08/11 07:51:32;;;;;;;4.30;2.88;;;23.50;72.70;;;;;;5040554;28;20053;-68
2023/08/11 07:53:59;;;;;;;5.45;2.10;;;23.70;73.10;;;;;;5045216;28;20040;-69
2023/08/11 07:56:25;;;;;;;4.38;2.30;;;24.00;71.10;;;;;;5046629;28;20040;-69
2023/08/11 07:58:52;;;;;;;2.20;2.00;;;24.40;71.20;;;;;;5048169;28;20469;-70
2023/08/11 08:01:18;;;;;;;3.47;2.50;;;24.50;70.40;;;;;;5042488;28;20044;-70
2023/08/11 08:03:44;;;;;;;2.70;2.30;;;24.50;67.10;;;;;;5060983;28;20099;-67
2023/08/11 08:06:10;;;;;;;2.95;2.13;;;24.80;67.50;;;;;;5031953;28;20052;-70
2023/08/11 08:08:35;;;;;;;3.35;2.55;;;25.00;66.40;;;;;;5034430;28;20041;-69
2023/08/11 08:11:02;;;;;;;3.10;2.38;;;25.10;62.50;;;;;;5030299;28;20090;-68
2023/08/11 08:13:28;;;;;;;2.90;2.30;;;25.20;62.60;;;;;;5031628;28;20700;-69
2023/08/11 08:15:54;;;;;;;5.07;2.20;;;24.80;62.30;;;;;;5038544;28;20048;-69
2023/08/11 08:18:20;;;;;;;4.43;2.00;;;25.30;63.70;;;;;;5029366;28;20033;-67
2023/08/11 08:20:46;;;;;;;4.38;2.50;;;25.50;63.80;;;;;;5049171;28;20045;-68
2023/08/11 08:23:12;;;;;;;4.60;2.53;;;25.70;63.50;;;;;;5028617;28;20061;-68
2023/08/11 08:25:38;;;;;;;3.65;2.42;;;25.90;62.50;;;;;;5035271;28;20102;-71
2023/08/11 08:28:05;;;;;;;4.40;2.53;;;26.10;61.20;;;;;;5041917;28;20045;-68
2023/08/11 08:30:31;;;;;;;4.50;2.70;;;26.30;60.60;;;;;;5043100;28;20037;-69
2023/08/11 08:32:56;;;;;;;3.83;2.47;;;26.10;60.70;;;;;;5047687;28;20063;-69
2023/08/11 08:35:22;;;;;;;2.90;2.10;;;26.50;60.20;;;;;;5045830;28;20127;-69
2023/08/11 08:37:48;;;;;;;4.22;2.65;;;26.90;59.00;;;;;;5042855;28;20556;-70
2023/08/11 08:40:13;;;;;;;2.67;2.30;;;26.80;58.30;;;;;;5032938;28;20178;-69
2023/08/11 08:42:41;;;;;;;4.50;2.67;;;27.20;59.10;;;;;;5032295;28;20040;-67
2023/08/11 08:45:07;;;;;;;3.05;2.60;;;27.50;57.00;;;;;;5031997;28;20050;-68
2023/08/11 08:47:34;;;;;;;5.63;2.83;;;26.50;57.50;;;;;;5052262;28;20040;-71
2023/08/11 08:50:03;;;;;;;4.20;2.65;;;27.20;56.90;;;;;;5038581;28;20049;-67
2023/08/11 08:52:29;;;;;;;4.15;2.70;;;27.20;56.10;;;;;;5050084;28;20049;-69
2023/08/11 08:54:56;;;;;;;4.68;2.95;;;27.30;56.60;;;;;;5051530;28;20091;-68
2023/08/11 08:57:25;;;;;;;6.72;2.55;;;26.80;55.80;;;;;;5041998;28;20056;-68
2023/08/11 08:59:51;;;;;;;3.10;2.42;;;26.80;56.40;;;;;;5039044;28;20049;-70
2023/08/11 09:02:17;;;;;;;4.43;2.83;;;26.70;56.60;;;;;;5034192;28;20124;-67
2023/08/11 09:04:45;;;;;;;8.70;2.70;;;27.40;54.80;;;;;;5057651;28;20124;-68
2023/08/11 09:07:11;;;;;;;5.15;2.90;;;27.70;55.00;;;;;;5044866;28;20037;-69
2023/08/11 09:09:37;;;;;;;4.93;2.45;;;27.80;52.30;;;;;;5034112;28;20311;-69
2023/08/11 09:12:03;;;;;;;4.45;2.60;;;27.60;54.00;;;;;;5050612;28;20135;-68
2023/08/11 09:14:28;;;;;;;3.40;2.72;;;28.00;52.90;;;;;;5052144;28;20460;-69
2023/08/11 09:16:54;;;;;;;3.35;2.72;;;28.50;52.00;;;;;;5034560;28;20078;-69
2023/08/11 09:19:21;;;;;;;4.57;2.50;;;28.20;51.90;;;;;;5048184;28;20033;-71
2023/08/11 09:21:47;;;;;;;4.95;2.60;;;27.80;52.30;;;;;;5052422;28;20106;-68
2023/08/11 09:24:13;;;;;;;4.18;2.40;;;27.80;52.20;;;;;;5049993;28;20036;-70
2023/08/11 09:26:44;;;;;;;4.03;2.58;;;27.90;51.10;;;;;;5046882;28;20584;-68
2023/08/11 09:29:11;;;;;;;4.63;2.55;;;27.70;52.40;;;;;;5044815;28;20037;-69
2023/08/11 09:31:39;;;;;;;5.47;2.88;;;27.60;52.90;;;;;;5051479;28;20508;-71
2023/08/11 09:34:17;;;;;;;3.65;2.42;;;27.30;53.10;;;;;;5051061;28;20041;-69
2023/08/11 09:36:43;;;;;;;4.20;2.63;;;27.10;53.50;;;;;;5034294;28;20048;-71
2023/08/11 09:39:10;;;;;;;3.03;2.50;;;27.20;53.50;;;;;;5057196;28;20383;-69
2023/08/11 09:41:55;;;;;;;10.02;3.20;;;27.30;52.70;;;;;;5051485;28;20179;-72
2023/08/11 09:44:23;;;;;;;4.15;2.88;;;27.30;50.20;;;;;;5047452;28;20069;-69
2023/08/11 09:46:49;;;;;;;3.55;2.45;;;26.80;52.60;;;;;;5020270;28;20041;-70
2023/08/11 09:49:16;;;;;;;4.20;2.63;;;26.90;53.30;;;;;;5037852;28;20651;-70
2023/08/11 09:51:42;;;;;;;4.57;2.38;;;26.50;54.20;;;;;;5035629;28;20114;-69
2023/08/11 09:54:10;;;;;;;4.88;3.17;;;26.70;54.80;;;;;;5029765;28;20045;-69
2023/08/11 09:56:44;;;;;;;3.95;2.72;;;26.70;54.60;;;;;;5012953;28;20045;-69
2023/08/11 09:59:12;;;;;;;4.85;2.97;;;26.50;54.20;;;;;;5045161;28;20044;-67
2023/08/11 10:01:42;;;;;;;4.57;2.97;;;26.50;54.20;;;;;;5048187;28;20116;-68
2023/08/11 10:04:12;;;;;;;3.88;2.50;;;26.50;54.10;;;;;;5050386;28;20266;-75
2023/08/11 10:06:38;;;;;;;;;;;26.90;54.20;;;;;;5047882;28;20063;-67
2023/08/11 10:09:06;;;;;;;5.43;2.97;;;27.10;53.50;;;;;;5038322;28;20351;-72
2023/08/11 10:11:34;;;;;;;5.85;2.55;;;27.50;53.30;;;;;;5047219;28;20067;-70
2023/08/11 10:14:03;;;;;;;3.72;2.50;;;27.90;52.60;;;;;;5044495;28;20123;-70
2023/08/11 10:16:29;;;;;;;4.03;2.75;;;27.80;53.00;;;;;;5043785;28;20051;-71
2023/08/11 10:18:56;;;;;;;3.60;2.70;;;27.40;53.30;;;;;;5065811;28;20535;-69
2023/08/11 10:21:25;;;;;;;3.60;2.72;;;27.10;54.40;;;;;;5054339;28;20095;-70
2023/08/11 10:23:53;;;;;;;6.22;2.90;;;26.90;54.50;;;;;;5047040;28;20265;-71
2023/08/11 10:26:20;;;;;;;5.55;2.42;;;26.50;54.70;;;;;;5065192;28;20372;-68
2023/08/11 10:28:47;;;;;;;8.43;2.55;;;26.40;54.90;;;;;;5042307;28;20045;-68
2023/08/11 10:31:13;;;;;;;6.70;2.60;;;26.20;55.40;;;;;;5030144;28;20041;-68
2023/08/11 10:33:38;;;;;;;2.97;2.35;;;26.10;55.40;;;;;;5039179;28;20041;-68
2023/08/11 10:36:05;;;;;;;4.13;2.50;;;26.50;56.20;;;;;;5067776;28;20429;-70
2023/08/11 10:38:32;;;;;;;3.40;2.42;;;26.80;55.70;;;;;;5046496;28;20119;-69
2023/08/11 10:41:04;;;;;;;6.05;2.10;;;26.80;55.40;;;;;;5046657;28;20120;-69
2023/08/11 10:43:32;;;;;;;2.78;2.00;;;26.80;54.30;;;;;;5057877;28;20040;-72
2023/08/11 10:46:16;;;;;;;2.80;2.25;;;26.50;54.50;;;;;;5044891;28;20124;-69
2023/08/11 10:48:42;;;;;;;3.08;2.20;;;26.50;54.70;;;;;;5049112;28;20079;-70
2023/08/11 10:51:28;;;;;;;3.17;2.35;;;26.50;54.40;;;;;;5051507;28;20041;-70
2023/08/11 10:53:55;;;;;;;5.63;2.20;;;26.40;54.10;;;;;;5048938;28;20128;-71
2023/08/11 10:56:34;;;;;;;4.10;2.17;;;26.50;55.50;;;;;;5043429;28;20170;-69
2023/08/11 10:59:19;;;;;;;3.97;2.53;;;26.50;56.10;;;;;;5034289;28;20384;-74
2023/08/11 11:01:50;;;;;;;2.58;2.30;;;26.80;56.50;;;;;;5033602;28;20087;-69
2023/08/11 11:04:20;;;;;;;4.75;2.30;;;26.80;55.90;;;;;;5033985;28;20079;-69
2023/08/11 11:06:47;;;;;;;6.90;2.67;;;26.70;55.10;;;;;;5034225;28;20176;-72
2023/08/11 11:09:14;;;;;;;4.90;2.85;;;26.80;54.50;;;;;;5040941;28;20041;-70
2023/08/11 11:11:40;;;;;;;3.53;2.40;;;26.80;54.40;;;;;;5028972;28;20041;-70
2023/08/11 11:14:07;;;;;;;4.70;2.63;;;26.90;54.50;;;;;;5029799;28;20049;-70
2023/08/11 11:16:34;;;;;;;3.45;2.28;;;26.90;54.60;;;;;;5049593;28;20473;-71
2023/08/11 11:19:01;;;;;;;3.15;2.00;;;27.00;54.80;;;;;;5032766;28;20108;-72
2023/08/11 11:21:27;;;;;;;5.13;2.00;;;27.20;53.80;;;;;;5033076;28;20041;-71
2023/08/11 11:23:53;;;;;;;4.07;2.38;;;27.10;52.70;;;;;;5028225;28;20052;-71
2023/08/11 11:26:27;;;;;;;4.00;2.47;;;27.10;52.90;;;;;;5048332;28;20036;-72
2023/08/11 11:28:54;;;;;;;3.78;2.47;;;27.00;53.10;;;;;;5047426;28;20534;-73
2023/08/11 11:31:21;;;;;;;3.80;2.03;;;26.90;52.90;;;;;;5032065;28;20041;-72
2023/08/11 11:33:49;;;;;;;3.25;2.33;;;26.90;53.10;;;;;;5048901;28;20136;-71
2023/08/11 11:36:17;;;;;;;3.90;2.30;;;26.80;52.90;;;;;;5041495;28;20041;-72
2023/08/11 11:38:43;;;;;;;3.72;2.28;;;27.00;53.30;;;;;;5046830;28;20068;-72
2023/08/11 11:41:11;;;;;;;3.92;2.35;;;27.20;53.30;;;;;;5042344;28;20056;-72
2023/08/11 11:43:37;;;;;;;4.55;2.30;;;27.20;52.80;;;;;;5034142;28;20040;-71
2023/08/11 11:46:03;;;;;;;5.00;2.70;;;27.20;52.50;;;;;;5028938;28;20465;-73
2023/08/11 11:48:29;;;;;;;4.15;2.20;;;27.30;52.90;;;;;;5028367;28;20045;-71
2023/08/11 11:50:55;;;;;;;4.38;2.25;;;27.30;52.80;;;;;;5028219;28;20123;-71
2023/08/11 11:53:22;;;;;;;3.00;2.05;;;27.40;52.30;;;;;;5029773;28;20052;-70
2023/08/11 11:55:48;;;;;;;4.32;2.40;;;27.60;52.00;;;;;;5041701;28;20562;-69
2023/08/11 11:58:17;;;;;;;3.65;2.00;;;27.90;51.80;;;;;;5039638;28;20123;-71
2023/08/11 12:00:46;;;;;;;3.37;2.30;;;27.70;51.20;;;;;;5049170;28;20037;-73
2023/08/11 12:03:12;;;;;;;4.20;2.00;;;28.10;50.50;;;;;;5043845;28;20635;-71
2023/08/11 12:05:38;;;;;;;3.10;2.40;;;28.20;50.50;;;;;;5047929;28;20045;-73
2023/08/11 12:08:17;;;;;;;4.10;2.65;;;28.30;50.40;;;;;;5048058;28;20457;-69
2023/08/11 12:10:46;;;;;;;3.97;2.08;;;28.20;48.20;;;;;;5041941;28;20119;-71
2023/08/11 12:13:12;;;;;;;5.70;2.20;;;28.20;50.30;;;;;;5030662;28;20045;-72
2023/08/11 12:15:38;;;;;;;2.88;1.92;;;28.20;50.40;;;;;;5028950;28;20045;-72
2023/08/11 12:18:05;;;;;;;4.88;2.67;;;28.50;50.10;;;;;;5045137;28;20037;-73
2023/08/11 12:20:30;;;;;;;3.55;2.00;;;28.40;50.30;;;;;;5046465;28;20037;-71
2023/08/11 12:22:56;;;;;;;3.50;2.28;;;28.50;50.10;;;;;;5065218;28;20144;-69
2023/08/11 12:25:23;;;;;;;5.18;2.50;;;28.50;49.50;;;;;;5037344;28;20214;-72
2023/08/11 12:27:48;;;;;;;5.60;2.13;;;28.60;49.60;;;;;;5029793;28;20376;-70
2023/08/11 12:30:15;;;;;;;4.47;2.10;;;28.60;48.80;;;;;;5046306;28;20124;-73
2023/08/11 12:32:41;;;;;;;3.38;2.15;;;28.70;49.10;;;;;;5047639;28;20041;-71
2023/08/11 12:35:11;;;;;;;6.13;2.40;;;28.70;49.10;;;;;;5039929;28;20083;-70
2023/08/11 12:37:37;;;;;;;6.63;1.92;;;28.80;48.90;;;;;;5038539;28;20052;-73
2023/08/11 12:40:03;;;;;;;4.97;2.22;;;28.90;48.90;;;;;;5045082;28;20338;-72